Time;durP1;ratioP1;P1;durP2;ratioP2;P2;SDS_P1;SDS_P2;PMS_P1;PMS_P2;Temp;Humidity;BMP_temperature;BMP_pressure;BME280_temperature;BME280_humidity;BME280_pressure;Samples;Min_cycle;Max_cycle;Signal;HPM_P1;HPM_P2
2022/12/24 00:02:02;;;;;;;3.65;1.40;;;13.10;75.20;;;;;;5029313;28;20029;-66
2022/12/24 00:04:34;;;;;;;5.70;1.40;;;13.10;74.90;;;;;;5041912;28;20013;-65
2022/12/24 00:07:00;;;;;;;4.55;1.27;;;13.10;74.90;;;;;;5045965;28;20037;-65
2022/12/24 00:09:29;;;;;;;7.75;1.80;;;13.10;74.80;;;;;;5049174;28;20025;-65
2022/12/24 00:11:55;;;;;;;8.45;2.80;;;13.10;74.40;;;;;;5046245;28;20503;-65
2022/12/24 00:14:23;;;;;;;4.55;1.40;;;13.00;74.30;;;;;;5042948;28;20033;-64
2022/12/24 00:16:49;;;;;;;5.80;1.45;;;13.00;74.30;;;;;;5043242;28;20056;-65
2022/12/24 00:19:17;;;;;;;7.80;1.95;;;13.00;74.10;;;;;;4981952;28;20405;-65
2022/12/24 00:21:43;;;;;;;8.90;1.90;;;13.00;74.10;;;;;;5045032;28;20036;-64
2022/12/24 00:24:09;;;;;;;7.07;2.63;;;12.90;73.90;;;;;;5043725;28;20035;-67
2022/12/24 00:26:37;;;;;;;6.20;1.98;;;12.90;73.60;;;;;;5048436;28;20044;-64
2022/12/24 00:29:03;;;;;;;7.30;1.90;;;12.90;74.00;;;;;;5047983;28;20056;-65
2022/12/24 00:31:29;;;;;;;3.80;1.33;;;12.90;73.80;;;;;;5045511;28;20429;-64
2022/12/24 00:33:55;;;;;;;5.47;1.60;;;12.90;73.60;;;;;;5040406;28;20029;-65
2022/12/24 00:36:22;;;;;;;5.93;1.70;;;12.90;73.60;;;;;;5042237;28;20405;-66
2022/12/24 00:38:48;;;;;;;5.53;2.28;;;12.80;73.50;;;;;;5048185;28;20069;-66
2022/12/24 00:41:23;;;;;;;5.25;1.42;;;12.80;73.50;;;;;;5049476;28;20030;-65
2022/12/24 00:44:01;;;;;;;5.82;1.73;;;12.80;73.50;;;;;;5037970;28;20021;-65
2022/12/24 00:46:28;;;;;;;5.45;1.30;;;12.70;73.20;;;;;;5043684;28;20429;-66
2022/12/24 00:48:54;;;;;;;4.15;1.50;;;12.60;73.60;;;;;;5041676;28;20028;-66
2022/12/24 00:51:21;;;;;;;3.03;1.58;;;12.60;73.70;;;;;;5038327;28;20053;-66
2022/12/24 00:53:47;;;;;;;4.95;1.70;;;12.50;73.80;;;;;;5045246;28;20025;-64
2022/12/24 00:56:13;;;;;;;5.32;1.83;;;12.40;73.90;;;;;;5041537;28;20025;-64
2022/12/24 00:58:39;;;;;;;4.28;1.60;;;12.30;74.00;;;;;;5045131;28;20068;-65
2022/12/24 01:01:05;;;;;;;5.28;1.65;;;12.20;74.10;;;;;;5054380;28;20669;-65
2022/12/24 01:03:36;;;;;;;7.40;2.40;;;12.10;74.20;;;;;;5053334;28;20090;-65
2022/12/24 01:06:04;;;;;;;7.88;2.60;;;12.10;74.50;;;;;;5043723;28;20041;-66
2022/12/24 01:08:31;;;;;;;7.35;2.58;;;12.00;74.60;;;;;;5038294;28;20022;-65
2022/12/24 01:10:57;;;;;;;8.95;2.40;;;11.90;74.80;;;;;;5057175;28;20025;-65
2022/12/24 01:13:23;;;;;;;5.30;2.60;;;11.90;75.10;;;;;;5048045;28;20029;-65
2022/12/24 01:15:48;;;;;;;6.45;2.45;;;11.80;75.10;;;;;;5052358;28;20022;-65
2022/12/24 01:18:14;;;;;;;7.75;2.55;;;11.80;75.20;;;;;;5047845;28;20029;-65
2022/12/24 01:20:41;;;;;;;7.82;2.67;;;11.80;75.40;;;;;;5040014;28;20040;-65
2022/12/24 01:23:07;;;;;;;6.82;2.28;;;11.80;75.50;;;;;;5037914;28;20812;-65
2022/12/24 01:25:32;;;;;;;8.10;3.00;;;11.80;75.50;;;;;;5047564;28;20044;-65
2022/12/24 01:27:58;;;;;;;6.38;1.98;;;11.70;76.00;;;;;;5047849;28;20036;-65
2022/12/24 01:30:24;;;;;;;6.80;1.83;;;11.70;75.40;;;;;;5050243;28;20043;-65
2022/12/24 01:32:49;;;;;;;7.10;1.70;;;11.70;75.30;;;;;;5042344;28;20033;-65
2022/12/24 01:35:15;;;;;;;6.43;1.95;;;11.60;75.30;;;;;;5052531;28;20020;-65
2022/12/24 01:37:42;;;;;;;4.65;1.77;;;11.60;75.40;;;;;;5047439;28;20549;-66
2022/12/24 01:45:52;;;;;;;2.97;1.40;;;11.40;75.40;;;;;;5045489;28;20052;-65
2022/12/24 01:48:36;;;;;;;4.22;1.42;;;11.30;75.50;;;;;;5044446;28;20086;-65
2022/12/24 01:51:31;;;;;;;8.32;2.47;;;11.30;75.40;;;;;;5041086;28;20053;-65
2022/12/24 01:54:02;;;;;;;7.93;2.92;;;11.20;75.40;;;;;;5043318;28;20033;-65
2022/12/24 01:56:29;;;;;;;13.82;4.85;;;11.20;75.60;;;;;;5044811;28;20057;-65
2022/12/24 01:59:01;;;;;;;24.15;8.45;;;11.10;75.80;;;;;;5055537;28;20064;-65
2022/12/24 02:01:26;;;;;;;23.25;8.45;;;11.10;75.90;;;;;;5044001;28;20036;-65
2022/12/24 02:03:52;;;;;;;22.98;8.65;;;11.10;76.10;;;;;;5044267;28;20026;-65
2022/12/24 02:06:19;;;;;;;20.23;7.72;;;11.00;76.10;;;;;;5046446;28;20030;-65
2022/12/24 02:08:45;;;;;;;21.63;9.30;;;11.00;76.20;;;;;;5043884;28;20053;-65
2022/12/24 02:11:17;;;;;;;25.10;9.88;;;11.00;76.40;;;;;;5060303;28;20029;-65
2022/12/24 02:13:47;;;;;;;18.10;6.70;;;11.00;76.50;;;;;;5048182;28;20104;-65
2022/12/24 02:16:24;;;;;;;14.55;5.07;;;10.90;76.50;;;;;;5047332;28;20036;-65
2022/12/24 02:19:42;;;;;;;12.30;4.43;;;10.90;76.60;;;;;;5050596;28;20037;-64
2022/12/24 02:22:17;;;;;;;11.15;3.22;;;10.90;76.70;;;;;;5024943;28;20045;-65
2022/12/24 02:25:01;;;;;;;7.82;2.22;;;10.90;76.70;;;;;;5040814;28;20057;-65
2022/12/24 02:27:53;;;;;;;6.32;2.55;;;10.80;76.80;;;;;;5041995;28;20033;-65
2022/12/24 02:30:22;;;;;;;4.90;1.90;;;10.80;76.90;;;;;;5039905;28;20041;-65
2022/12/24 02:33:24;;;;;;;8.45;2.00;;;10.80;77.00;;;;;;5046705;28;20030;-65
2022/12/24 02:35:57;;;;;;;4.95;1.67;;;10.80;77.30;;;;;;5045614;28;20034;-66
2022/12/24 02:38:46;;;;;;;7.25;1.85;;;10.80;77.30;;;;;;5047407;28;20028;-66
2022/12/24 02:41:24;;;;;;;5.03;1.85;;;10.80;77.50;;;;;;5046972;28;20026;-65
2022/12/24 02:43:52;;;;;;;6.80;1.80;;;10.80;77.50;;;;;;5048069;28;20063;-65
2022/12/24 02:46:26;;;;;;;5.10;1.65;;;10.80;77.60;;;;;;5038245;28;20060;-65
2022/12/24 02:48:54;;;;;;;3.95;1.35;;;10.80;77.80;;;;;;5045352;28;20025;-65
2022/12/24 02:51:23;;;;;;;5.30;1.67;;;10.80;77.80;;;;;;5051467;28;20080;-66
2022/12/24 02:53:49;;;;;;;8.20;1.95;;;10.80;78.00;;;;;;5044827;28;20021;-65
2022/12/24 02:56:43;;;;;;;4.50;1.30;;;10.80;78.10;;;;;;5042625;28;20036;-65
2022/12/24 02:59:08;;;;;;;2.88;1.10;;;10.80;78.30;;;;;;5041598;28;20041;-65
2022/12/24 03:01:34;;;;;;;8.25;1.42;;;10.80;78.30;;;;;;5050092;28;20086;-65
2022/12/24 03:04:02;;;;;;;8.38;1.40;;;10.80;78.40;;;;;;5053479;28;20040;-65
2022/12/24 03:06:49;;;;;;;6.50;1.35;;;10.80;78.40;;;;;;5042830;28;20022;-66
2022/12/24 03:09:56;;;;;;;4.38;1.48;;;10.90;78.70;;;;;;5045919;28;20034;-65
2022/12/24 03:12:35;;;;;;;7.70;1.60;;;10.90;78.60;;;;;;5038281;28;20037;-65
2022/12/24 03:15:07;;;;;;;6.03;1.80;;;10.90;78.60;;;;;;5048440;28;20112;-65
2022/12/24 03:17:36;;;;;;;7.10;2.28;;;10.90;78.60;;;;;;5046260;28;20059;-65
2022/12/24 03:20:04;;;;;;;6.97;1.77;;;10.90;78.70;;;;;;5057280;28;20033;-65
2022/12/24 03:22:33;;;;;;;5.15;1.38;;;10.90;78.80;;;;;;5045620;28;20041;-65
2022/12/24 03:24:59;;;;;;;5.90;1.42;;;10.90;78.80;;;;;;5050736;28;20558;-65
2022/12/24 03:27:28;;;;;;;5.05;1.42;;;10.90;78.90;;;;;;5048821;28;20037;-65
2022/12/24 03:29:53;;;;;;;5.45;1.55;;;11.00;79.00;;;;;;5052042;28;20037;-65
2022/12/24 03:32:24;;;;;;;8.52;1.30;;;11.00;79.10;;;;;;5047175;28;20060;-65
2022/12/24 03:34:50;;;;;;;6.97;1.70;;;11.00;79.40;;;;;;5046552;28;20025;-66
2022/12/24 03:37:16;;;;;;;10.73;1.90;;;11.00;79.40;;;;;;5045884;28;20029;-65
2022/12/24 03:39:41;;;;;;;6.03;1.23;;;11.10;79.40;;;;;;5039566;28;20033;-65
2022/12/24 03:42:07;;;;;;;7.07;1.38;;;11.10;79.60;;;;;;5053437;28;20466;-65
2022/12/24 03:44:33;;;;;;;6.65;1.23;;;11.20;79.40;;;;;;5049229;28;20052;-65
2022/12/24 03:46:58;;;;;;;8.45;1.40;;;11.40;79.50;;;;;;5048807;28;20040;-65
2022/12/24 03:49:24;;;;;;;5.90;1.50;;;11.30;79.40;;;;;;5049594;28;20032;-64
2022/12/24 03:51:50;;;;;;;6.38;1.17;;;11.30;79.20;;;;;;5045997;28;20053;-65
2022/12/24 03:54:15;;;;;;;4.85;1.20;;;11.30;79.10;;;;;;5037604;28;20029;-64
2022/12/24 03:56:41;;;;;;;6.32;1.23;;;11.40;79.10;;;;;;5043359;28;20032;-64
2022/12/24 03:59:06;;;;;;;3.80;1.20;;;11.40;79.10;;;;;;5046330;28;20040;-64
2022/12/24 04:01:32;;;;;;;5.32;1.60;;;11.40;79.10;;;;;;5038165;28;20036;-65
2022/12/24 04:03:58;;;;;;;3.65;1.58;;;11.40;79.10;;;;;;5048880;28;20026;-64
2022/12/24 04:06:23;;;;;;;6.55;1.50;;;11.40;79.00;;;;;;5050236;28;20492;-65
2022/12/24 04:08:49;;;;;;;5.22;1.38;;;11.40;78.90;;;;;;5050264;28;20056;-64
2022/12/24 04:11:15;;;;;;;8.90;1.48;;;11.40;78.90;;;;;;5039353;28;20037;-65
2022/12/24 04:13:42;;;;;;;8.55;1.58;;;11.50;79.00;;;;;;5047392;28;20032;-65
2022/12/24 04:16:10;;;;;;;6.15;1.85;;;11.50;78.90;;;;;;5038694;28;20135;-65
2022/12/24 04:18:37;;;;;;;6.00;1.35;;;11.50;78.90;;;;;;5044746;28;20032;-64
2022/12/24 04:21:03;;;;;;;6.55;1.58;;;11.40;78.70;;;;;;5046243;28;20032;-64
2022/12/24 04:23:33;;;;;;;5.88;1.50;;;11.50;78.80;;;;;;5035426;28;20081;-64
2022/12/24 04:26:00;;;;;;;5.85;1.48;;;11.40;78.60;;;;;;5048174;28;20026;-64
2022/12/24 04:28:27;;;;;;;6.60;1.48;;;11.40;78.50;;;;;;5049837;28;20037;-64
2022/12/24 04:30:58;;;;;;;9.32;2.30;;;11.40;78.60;;;;;;5048718;28;20025;-64
2022/12/24 04:33:23;;;;;;;8.32;2.03;;;11.40;78.60;;;;;;5051979;28;20045;-64
2022/12/24 04:35:49;;;;;;;6.47;1.80;;;11.40;78.60;;;;;;5049289;28;20056;-65
2022/12/24 04:38:14;;;;;;;6.70;2.08;;;11.40;78.60;;;;;;5045003;28;20497;-64
2022/12/24 04:40:40;;;;;;;5.95;1.70;;;11.30;78.50;;;;;;5048813;28;20041;-66
2022/12/24 04:43:06;;;;;;;10.00;1.85;;;11.30;78.40;;;;;;5044532;28;20033;-65
2022/12/24 04:45:32;;;;;;;4.72;1.70;;;11.30;78.40;;;;;;5053002;28;20109;-64
2022/12/24 04:47:57;;;;;;;4.40;1.77;;;11.30;78.40;;;;;;5044852;28;20033;-64
2022/12/24 04:50:23;;;;;;;6.90;2.00;;;11.20;78.40;;;;;;5038357;28;20476;-65
2022/12/24 04:52:49;;;;;;;7.35;1.52;;;11.20;78.40;;;;;;5041030;28;20049;-65
2022/12/24 04:55:14;;;;;;;5.05;1.55;;;11.20;78.50;;;;;;5049234;28;20084;-65
2022/12/24 04:57:40;;;;;;;5.88;1.60;;;11.20;78.60;;;;;;5045163;28;20421;-65
2022/12/24 05:00:07;;;;;;;8.35;1.58;;;11.20;78.60;;;;;;5037631;28;20080;-65
2022/12/24 05:02:32;;;;;;;6.50;1.65;;;11.10;78.70;;;;;;5042461;28;22019;-65
2022/12/24 05:04:58;;;;;;;5.43;1.70;;;11.10;78.70;;;;;;5046099;28;20045;-65
2022/12/24 05:07:24;;;;;;;3.75;1.30;;;11.10;78.80;;;;;;5051892;28;20033;-65
2022/12/24 05:09:49;;;;;;;7.03;1.70;;;11.10;78.80;;;;;;5048497;28;20025;-65
2022/12/24 05:12:15;;;;;;;6.22;1.27;;;11.10;78.80;;;;;;5039924;28;20044;-65
2022/12/24 05:14:41;;;;;;;4.18;1.60;;;11.00;78.80;;;;;;5049121;28;20064;-65
2022/12/24 05:17:06;;;;;;;9.85;1.90;;;11.00;78.80;;;;;;5040383;28;20086;-65
2022/12/24 05:19:32;;;;;;;7.63;1.63;;;11.00;78.80;;;;;;5037741;28;20056;-65
2022/12/24 05:27:26;;;;;;;3.85;1.10;;;11.00;79.00;;;;;;5046095;28;20088;-66
2022/12/24 05:29:52;;;;;;;5.03;1.30;;;11.00;79.00;;;;;;5039311;28;20029;-65
2022/12/24 05:32:17;;;;;;;10.07;1.52;;;11.00;79.00;;;;;;5039714;28;20063;-65
2022/12/24 05:34:43;;;;;;;6.25;1.67;;;11.00;79.00;;;;;;5041553;28;20025;-65
2022/12/24 05:37:08;;;;;;;3.72;1.45;;;10.90;79.00;;;;;;5054675;28;20021;-65
2022/12/24 05:39:34;;;;;;;5.18;1.40;;;10.90;79.00;;;;;;5047961;28;20056;-65
2022/12/24 05:42:00;;;;;;;6.32;1.45;;;10.90;78.90;;;;;;5054662;28;20032;-65
2022/12/24 05:44:25;;;;;;;5.13;1.30;;;10.90;79.00;;;;;;5048496;28;20030;-65
2022/12/24 05:46:51;;;;;;;6.82;1.88;;;10.90;78.90;;;;;;5042646;28;20037;-65
2022/12/24 05:49:16;;;;;;;7.07;1.50;;;10.90;78.90;;;;;;5040450;28;20033;-65
2022/12/24 05:51:42;;;;;;;9.80;1.77;;;10.90;78.90;;;;;;5049146;28;20094;-65
2022/12/24 05:54:08;;;;;;;5.55;2.03;;;10.90;78.90;;;;;;5047409;28;20112;-65
2022/12/24 05:56:33;;;;;;;8.20;2.03;;;10.80;79.00;;;;;;5045284;28;20025;-66
2022/12/24 05:58:59;;;;;;;7.32;2.47;;;10.80;79.10;;;;;;5043946;28;20037;-65
2022/12/24 06:01:25;;;;;;;6.70;2.67;;;10.80;79.10;;;;;;5042651;28;20058;-65
2022/12/24 06:03:52;;;;;;;8.25;3.25;;;10.80;79.00;;;;;;5048466;28;20024;-66
2022/12/24 06:06:23;;;;;;;5.55;2.72;;;10.80;79.00;;;;;;5042467;28;20036;-65
2022/12/24 06:08:50;;;;;;;13.38;3.00;;;10.80;79.00;;;;;;5047301;28;20080;-65
2022/12/24 06:11:18;;;;;;;9.90;2.47;;;10.80;78.90;;;;;;5042749;28;20042;-65
2022/12/24 06:13:43;;;;;;;6.15;2.15;;;10.80;78.80;;;;;;5044821;28;20017;-65
2022/12/24 06:16:12;;;;;;;5.22;1.73;;;10.80;78.80;;;;;;5048705;28;20021;-65
2022/12/24 06:18:38;;;;;;;11.48;2.45;;;10.80;78.60;;;;;;5046065;28;20025;-65
2022/12/24 06:21:05;;;;;;;5.70;2.30;;;10.80;78.60;;;;;;5043813;28;20079;-66
2022/12/24 06:23:32;;;;;;;5.47;2.22;;;10.80;78.60;;;;;;5051296;28;20021;-66
2022/12/24 06:25:59;;;;;;;7.05;3.03;;;10.80;79.10;;;;;;5050275;28;20051;-65
2022/12/24 06:28:26;;;;;;;7.10;3.03;;;10.80;78.40;;;;;;5047424;28;20056;-65
2022/12/24 06:30:52;;;;;;;7.40;2.75;;;10.80;78.20;;;;;;5038546;28;20025;-65
2022/12/24 06:33:18;;;;;;;13.00;3.22;;;10.70;78.10;;;;;;5039211;28;20132;-65
2022/12/24 06:35:45;;;;;;;7.60;2.60;;;10.70;78.10;;;;;;5044856;28;20037;-65
2022/12/24 06:38:11;;;;;;;9.25;2.28;;;10.70;78.00;;;;;;5044938;28;20021;-66
2022/12/24 06:40:41;;;;;;;5.10;2.25;;;10.70;77.90;;;;;;5060714;28;20048;-65
2022/12/24 06:43:07;;;;;;;8.13;2.13;;;10.60;77.70;;;;;;5050705;28;20040;-66
2022/12/24 06:45:32;;;;;;;8.90;2.33;;;10.60;77.70;;;;;;5049523;28;20029;-65
2022/12/24 06:47:59;;;;;;;7.38;2.08;;;10.60;77.70;;;;;;5039647;28;20503;-65
2022/12/24 06:50:24;;;;;;;6.13;2.20;;;10.60;77.70;;;;;;5044657;28;20046;-66
2022/12/24 06:52:50;;;;;;;9.48;2.92;;;10.50;77.70;;;;;;5043748;28;20026;-65
2022/12/24 06:55:16;;;;;;;10.95;2.60;;;10.40;77.70;;;;;;5054095;28;20621;-66
2022/12/24 06:57:42;;;;;;;7.15;1.85;;;10.50;77.90;;;;;;5048890;28;20029;-66
2022/12/24 07:00:10;;;;;;;10.45;1.75;;;10.50;77.90;;;;;;5043427;28;20029;-65
2022/12/24 07:02:39;;;;;;;8.98;1.77;;;10.40;77.80;;;;;;5044314;28;20691;-65
2022/12/24 07:05:05;;;;;;;6.25;1.58;;;10.50;77.90;;;;;;5053599;28;20049;-66
2022/12/24 07:07:31;;;;;;;8.40;2.00;;;10.50;77.80;;;;;;5038382;28;20026;-65
2022/12/24 07:09:57;;;;;;;7.80;1.60;;;10.40;77.80;;;;;;5051338;28;20025;-65
2022/12/24 07:12:22;;;;;;;5.47;1.77;;;10.40;77.70;;;;;;5047102;28;20064;-65
2022/12/24 07:14:48;;;;;;;9.63;2.05;;;10.50;77.70;;;;;;5046274;28;20033;-65
2022/12/24 07:17:13;;;;;;;5.97;1.58;;;10.50;77.60;;;;;;5045507;28;20029;-65
2022/12/24 07:19:39;;;;;;;5.30;1.67;;;10.40;77.50;;;;;;5041003;28;20128;-66
2022/12/24 07:22:05;;;;;;;6.10;1.88;;;10.40;77.40;;;;;;5044046;28;20105;-65
2022/12/24 07:24:30;;;;;;;7.43;2.25;;;10.40;77.40;;;;;;5048714;28;20034;-66
2022/12/24 07:26:56;;;;;;;6.10;2.10;;;10.40;77.40;;;;;;5045772;28;20032;-65
2022/12/24 07:29:22;;;;;;;4.53;1.92;;;10.40;77.40;;;;;;5046895;28;20033;-66
2022/12/24 07:31:47;;;;;;;11.88;2.15;;;10.40;77.40;;;;;;5047834;28;20021;-66
2022/12/24 07:34:13;;;;;;;5.88;2.00;;;10.40;77.40;;;;;;5049067;28;20563;-66
2022/12/24 07:36:39;;;;;;;9.60;2.42;;;10.40;77.30;;;;;;5047476;28;20084;-66
2022/12/24 07:39:04;;;;;;;6.88;2.60;;;10.40;77.30;;;;;;5052756;28;20118;-65
2022/12/24 07:41:30;;;;;;;6.97;2.40;;;10.30;77.10;;;;;;5042097;28;20106;-66
2022/12/24 07:43:56;;;;;;;6.47;2.28;;;10.30;77.20;;;;;;5045410;28;20025;-66
2022/12/24 07:46:21;;;;;;;7.15;2.00;;;10.30;77.20;;;;;;5042327;28;20068;-64
2022/12/24 07:48:47;;;;;;;11.75;2.60;;;10.30;77.30;;;;;;5049320;28;20025;-66
2022/12/24 07:51:12;;;;;;;9.52;2.63;;;10.30;77.20;;;;;;5044208;28;20930;-65
2022/12/24 07:53:38;;;;;;;8.35;2.90;;;10.30;77.30;;;;;;5045274;28;20133;-65
2022/12/24 07:56:04;;;;;;;5.65;2.38;;;10.30;77.50;;;;;;5043847;28;20025;-65
2022/12/24 07:58:30;;;;;;;7.20;2.33;;;10.30;77.60;;;;;;5050868;28;20025;-65
2022/12/24 08:00:57;;;;;;;6.57;1.67;;;10.30;77.70;;;;;;5041475;28;20032;-64
2022/12/24 08:03:23;;;;;;;6.18;1.67;;;10.30;77.70;;;;;;5043603;28;20048;-65
2022/12/24 08:05:49;;;;;;;6.88;2.47;;;10.40;77.80;;;;;;5046129;28;20051;-65
2022/12/24 08:08:14;;;;;;;7.78;1.88;;;10.40;77.90;;;;;;5045256;28;20038;-65
2022/12/24 08:10:41;;;;;;;6.45;1.70;;;10.40;77.90;;;;;;5044272;28;20091;-65
2022/12/24 08:13:07;;;;;;;7.47;2.10;;;10.40;77.80;;;;;;5043144;28;20089;-65
2022/12/24 08:15:33;;;;;;;12.68;2.60;;;10.50;77.90;;;;;;5047816;28;20064;-64
2022/12/24 08:17:58;;;;;;;3.95;1.90;;;10.50;77.90;;;;;;5046382;28;20051;-66
2022/12/24 08:20:24;;;;;;;8.10;2.20;;;10.50;77.80;;;;;;5049048;28;20037;-65
2022/12/24 08:22:50;;;;;;;6.82;1.83;;;10.50;77.90;;;;;;5046986;28;20032;-66
2022/12/24 08:25:15;;;;;;;5.25;2.00;;;10.50;77.80;;;;;;5042972;28;20026;-65
2022/12/24 08:27:41;;;;;;;5.40;1.98;;;10.60;77.80;;;;;;5050540;28;20033;-66
2022/12/24 08:30:08;;;;;;;8.52;2.05;;;10.60;77.80;;;;;;5048589;28;20056;-66
2022/12/24 08:32:33;;;;;;;8.85;2.10;;;10.70;77.90;;;;;;5044970;28;20052;-66
2022/12/24 08:34:59;;;;;;;3.50;1.30;;;10.70;77.80;;;;;;5045904;28;20036;-65
2022/12/24 08:37:25;;;;;;;6.63;1.75;;;10.70;77.90;;;;;;5047724;28;20037;-66
2022/12/24 08:39:50;;;;;;;10.63;2.00;;;10.70;77.90;;;;;;5048565;28;20105;-65
2022/12/24 08:42:16;;;;;;;7.07;1.80;;;10.70;77.80;;;;;;5042947;28;20045;-64
2022/12/24 08:44:41;;;;;;;4.85;1.55;;;10.80;77.90;;;;;;5045623;28;20085;-65
2022/12/24 08:47:07;;;;;;;6.28;1.90;;;10.80;77.80;;;;;;5035577;28;20060;-65
2022/12/24 08:49:33;;;;;;;6.32;1.75;;;10.80;77.80;;;;;;5037413;28;20072;-65
2022/12/24 08:51:58;;;;;;;4.25;1.48;;;10.90;77.90;;;;;;5048382;28;20067;-65
2022/12/24 08:54:24;;;;;;;6.43;1.83;;;10.90;77.90;;;;;;5039072;28;20033;-65
2022/12/24 08:56:50;;;;;;;11.68;1.75;;;11.00;77.90;;;;;;5043201;28;20025;-64
2022/12/24 08:59:16;;;;;;;8.98;2.35;;;11.00;77.80;;;;;;5041549;28;20116;-65
2022/12/24 09:01:42;;;;;;;4.63;2.00;;;11.00;77.70;;;;;;5043956;28;20025;-64
2022/12/24 09:04:08;;;;;;;5.10;2.30;;;11.10;77.70;;;;;;5049407;28;20026;-64
2022/12/24 09:06:34;;;;;;;6.53;2.67;;;11.20;77.60;;;;;;5040478;28;20464;-66
2022/12/24 09:09:01;;;;;;;6.57;1.80;;;11.20;77.40;;;;;;5042954;28;20029;-64
2022/12/24 09:11:27;;;;;;;9.25;1.98;;;11.20;77.30;;;;;;5042551;28;20025;-64
2022/12/24 09:13:53;;;;;;;5.57;1.88;;;11.20;77.10;;;;;;5041622;28;20041;-65
2022/12/24 09:16:19;;;;;;;8.40;2.15;;;11.30;77.10;;;;;;5044832;28;20037;-65
2022/12/24 09:18:45;;;;;;;5.30;2.15;;;11.30;77.00;;;;;;5046053;28;20021;-66
2022/12/24 09:21:14;;;;;;;6.70;2.13;;;11.30;77.00;;;;;;5049071;28;20042;-66
2022/12/24 09:23:42;;;;;;;7.88;2.30;;;11.30;76.90;;;;;;5051650;28;20033;-66
2022/12/24 09:26:21;;;;;;;12.15;3.08;;;11.40;76.90;;;;;;5046471;28;20017;-65
2022/12/24 09:28:47;;;;;;;5.20;2.10;;;11.40;76.70;;;;;;5050802;28;20073;-66
2022/12/24 09:31:13;;;;;;;12.13;2.30;;;11.40;76.80;;;;;;5048308;28;20041;-64
2022/12/24 09:33:41;;;;;;;7.07;2.10;;;11.40;76.70;;;;;;5043782;28;20017;-65
2022/12/24 09:36:07;;;;;;;9.68;2.50;;;11.40;76.60;;;;;;5041120;28;20036;-65
2022/12/24 09:38:33;;;;;;;5.10;2.35;;;11.40;76.70;;;;;;5038531;28;20026;-64
2022/12/24 09:41:00;;;;;;;6.07;1.88;;;11.40;76.80;;;;;;5052736;28;20032;-65
2022/12/24 09:43:29;;;;;;;7.60;2.00;;;11.50;76.90;;;;;;5049809;28;20052;-65
2022/12/24 09:46:12;;;;;;;10.52;2.50;;;11.50;76.70;;;;;;5041835;28;20051;-64
2022/12/24 09:48:42;;;;;;;10.82;2.20;;;11.60;76.10;;;;;;5034001;28;20033;-65
2022/12/24 09:51:10;;;;;;;10.50;2.72;;;11.60;76.30;;;;;;5042165;28;20499;-65
2022/12/24 09:53:42;;;;;;;6.05;1.58;;;11.60;76.40;;;;;;5042708;28;20025;-64
2022/12/24 09:56:19;;;;;;;6.55;2.08;;;11.70;76.10;;;;;;5043769;28;20032;-65
2022/12/24 09:58:48;;;;;;;7.60;1.95;;;11.80;75.90;;;;;;5040193;28;20024;-65
2022/12/24 10:01:16;;;;;;;6.72;1.88;;;11.80;76.10;;;;;;5045088;28;20901;-65
2022/12/24 10:03:42;;;;;;;4.82;1.67;;;11.90;76.20;;;;;;5042406;28;20723;-65
2022/12/24 10:06:23;;;;;;;6.47;1.83;;;12.00;76.20;;;;;;5043930;28;20587;-65
2022/12/24 10:09:17;;;;;;;9.70;2.50;;;12.10;76.00;;;;;;5036239;28;20021;-65
2022/12/24 10:12:04;;;;;;;11.80;2.08;;;12.20;75.60;;;;;;5033559;28;20104;-65
2022/12/24 10:14:38;;;;;;;13.55;8.00;;;12.40;75.10;;;;;;5041128;28;20026;-65
2022/12/24 10:17:25;;;;;;;14.30;2.70;;;12.50;75.70;;;;;;5038099;28;20364;-64
2022/12/24 10:20:19;;;;;;;6.72;2.05;;;12.60;74.50;;;;;;5047636;28;20037;-65
2022/12/24 10:23:22;;;;;;;9.60;2.70;;;12.80;75.10;;;;;;5041662;28;20120;-65
2022/12/24 10:26:00;;;;;;;9.00;2.00;;;12.90;73.70;;;;;;5051029;28;20025;-65
2022/12/24 10:28:41;;;;;;;7.43;1.98;;;13.10;74.00;;;;;;5037881;28;20091;-65
2022/12/24 10:31:07;;;;;;;7.65;2.13;;;13.20;74.10;;;;;;5039727;28;20053;-66
2022/12/24 10:33:40;;;;;;;5.70;2.00;;;13.30;73.80;;;;;;5037286;28;20051;-66
2022/12/24 10:36:19;;;;;;;10.70;2.55;;;13.40;73.10;;;;;;5048696;28;20036;-66
2022/12/24 10:38:45;;;;;;;10.77;2.05;;;13.50;72.80;;;;;;5044938;28;20511;-65
2022/12/24 10:41:13;;;;;;;8.25;2.28;;;13.50;72.60;;;;;;5051753;28;20037;-65
2022/12/24 10:43:41;;;;;;;9.40;2.05;;;13.60;72.00;;;;;;5045399;28;20072;-65
2022/12/24 10:46:18;;;;;;;7.45;1.42;;;13.60;71.50;;;;;;5052047;28;20025;-64
2022/12/24 10:48:56;;;;;;;9.52;2.20;;;13.70;71.20;;;;;;5041901;28;20040;-63
2022/12/24 10:51:43;;;;;;;10.18;2.08;;;13.70;71.00;;;;;;5041941;28;20569;-63
2022/12/24 10:54:15;;;;;;;7.68;1.92;;;13.80;70.40;;;;;;5044850;28;20037;-63
2022/12/24 10:56:55;;;;;;;10.50;2.00;;;13.90;71.10;;;;;;5054530;28;20040;-65
2022/12/24 10:59:27;;;;;;;8.98;2.05;;;13.90;70.50;;;;;;5042677;28;20045;-65
2022/12/24 11:01:54;;;;;;;6.30;1.77;;;14.10;70.60;;;;;;5041857;28;20488;-64
2022/12/24 11:04:23;;;;;;;7.57;2.08;;;14.10;70.50;;;;;;5049593;28;20051;-64
2022/12/24 11:06:59;;;;;;;7.55;1.77;;;14.20;69.90;;;;;;5045468;28;20029;-65
2022/12/24 11:09:42;;;;;;;9.68;2.22;;;14.30;69.40;;;;;;5041712;28;20033;-64
2022/12/24 11:12:22;;;;;;;8.30;2.28;;;14.30;68.50;;;;;;5050728;28;20028;-63
2022/12/24 11:14:58;;;;;;;8.23;1.75;;;14.40;68.40;;;;;;5045397;28;20140;-65
2022/12/24 11:17:23;;;;;;;8.23;1.90;;;14.40;69.70;;;;;;5045351;28;20033;-63
2022/12/24 11:19:50;;;;;;;8.18;1.73;;;14.50;69.10;;;;;;5049418;28;20052;-64
2022/12/24 11:22:33;;;;;;;10.93;2.22;;;14.50;68.50;;;;;;5043152;28;20097;-64
2022/12/24 11:25:21;;;;;;;11.07;2.60;;;14.50;67.20;;;;;;5048505;28;20045;-64
2022/12/24 11:27:51;;;;;;;14.13;2.08;;;14.50;67.10;;;;;;5040978;28;20069;-65
2022/12/24 11:30:30;;;;;;;10.55;2.25;;;14.60;68.60;;;;;;5041401;28;20025;-65
2022/12/24 11:33:04;;;;;;;12.57;2.20;;;14.70;67.90;;;;;;5047113;28;20585;-64
2022/12/24 11:35:38;;;;;;;11.82;2.30;;;14.70;67.60;;;;;;5048937;28;20102;-64
2022/12/24 11:38:03;;;;;;;11.27;2.28;;;14.80;67.90;;;;;;5037043;28;20021;-65
2022/12/24 11:40:57;;;;;;;14.77;2.83;;;14.90;68.00;;;;;;5057736;28;20088;-65
2022/12/24 11:43:22;;;;;;;14.13;2.45;;;14.90;64.50;;;;;;5043518;28;20033;-66
2022/12/24 11:45:51;;;;;;;7.07;2.10;;;14.90;66.60;;;;;;5049247;28;20029;-65
2022/12/24 11:48:28;;;;;;;8.15;2.08;;;14.90;66.30;;;;;;5043082;28;20026;-64
2022/12/24 11:51:02;;;;;;;8.43;2.08;;;14.80;65.00;;;;;;5036649;28;20041;-64
2022/12/24 11:53:40;;;;;;;;;;;14.70;66.00;;;;;;5044008;28;20026;-65
2022/12/24 11:56:37;;;;;;;9.25;1.98;;;14.70;66.80;;;;;;5055397;28;19909;-65
2022/12/24 11:59:25;;;;;;;7.22;1.70;;;14.60;67.00;;;;;;5038845;28;20030;-64
2022/12/24 12:02:17;;;;;;;7.57;1.70;;;14.60;67.50;;;;;;5047516;28;20026;-65
2022/12/24 12:04:48;;;;;;;8.30;2.00;;;14.60;68.10;;;;;;5037553;28;20045;-65
2022/12/24 12:07:34;;;;;;;8.27;2.10;;;14.60;68.40;;;;;;5047918;28;20091;-65
2022/12/24 12:10:27;;;;;;;11.93;2.28;;;14.60;68.10;;;;;;5043846;28;20021;-64
2022/12/24 12:13:02;;;;;;;9.70;2.45;;;14.60;68.20;;;;;;5051024;28;20025;-65
2022/12/24 12:15:33;;;;;;;10.82;1.98;;;14.60;68.90;;;;;;5040515;28;20121;-65
2022/12/24 12:18:13;;;;;;;13.57;2.53;;;14.60;68.10;;;;;;5046605;28;20036;-64
2022/12/24 12:20:44;;;;;;;7.80;2.00;;;14.60;68.30;;;;;;5047315;28;20037;-64
2022/12/24 12:23:12;;;;;;;13.57;2.50;;;14.60;68.30;;;;;;5044943;28;20026;-65
2022/12/24 12:25:52;;;;;;;9.13;2.60;;;14.70;69.10;;;;;;5043230;28;20520;-65
2022/12/24 12:28:20;;;;;;;11.70;2.25;;;14.70;69.00;;;;;;5045694;28;20105;-65
2022/12/24 12:31:04;;;;;;;13.93;2.38;;;14.80;69.40;;;;;;5042379;28;20052;-64
2022/12/24 12:33:37;;;;;;;10.13;2.20;;;15.00;68.90;;;;;;5037677;28;20121;-64
2022/12/24 12:36:06;;;;;;;12.05;2.33;;;15.10;68.50;;;;;;5041339;28;20030;-65
2022/12/24 12:38:32;;;;;;;9.77;2.20;;;15.20;68.10;;;;;;5045547;28;20170;-65
2022/12/24 12:41:04;;;;;;;9.32;1.95;;;15.20;67.60;;;;;;5048726;28;20134;-64
2022/12/24 12:43:47;;;;;;;8.82;2.08;;;15.10;66.80;;;;;;5038824;28;20017;-65
2022/12/24 12:46:38;;;;;;;6.03;1.93;;;15.10;66.40;;;;;;5046940;28;20707;-66
2022/12/24 12:49:24;;;;;;;6.00;2.00;;;15.00;66.40;;;;;;5040165;28;20031;-65
2022/12/24 12:52:08;;;;;;;9.77;2.35;;;14.90;66.90;;;;;;5036769;28;20053;-65
2022/12/24 12:54:50;;;;;;;10.88;2.35;;;14.80;66.40;;;;;;5040448;28;20047;-64
2022/12/24 12:57:20;;;;;;;11.27;2.33;;;14.70;67.10;;;;;;5038775;28;20096;-64
2022/12/24 12:59:56;;;;;;;8.55;2.40;;;14.60;67.30;;;;;;5064352;28;20113;-65
2022/12/24 13:02:59;;;;;;;6.88;1.77;;;14.50;67.10;;;;;;5035598;28;20064;-64
2022/12/24 13:05:46;;;;;;;9.02;2.30;;;14.40;67.50;;;;;;5046410;28;20059;-64
2022/12/24 13:08:20;;;;;;;8.63;1.85;;;14.30;67.60;;;;;;5044004;28;20029;-65
2022/12/24 13:11:04;;;;;;;12.90;1.85;;;14.20;68.10;;;;;;5045627;28;20076;-65
2022/12/24 13:14:09;;;;;;;6.20;2.17;;;14.20;68.10;;;;;;5040604;28;20034;-64